sensor_id;sensor_type;location;lat;lon;timestamp;P1;durP1;ratioP1;P2;durP2;ratioP2
75090;SDS011;63674;48.048;8.306;2023-03-15T00:00:19;4.55;;;1.90;;
75090;SDS011;63674;48.048;8.306;2023-03-15T00:02:47;4.63;;;1.60;;
75090;SDS011;63674;48.048;8.306;2023-03-15T00:05:16;5.82;;;2.00;;
75090;SDS011;63674;48.048;8.306;2023-03-15T00:07:46;4.40;;;1.83;;
75090;SDS011;63674;48.048;8.306;2023-03-15T00:10:15;4.97;;;1.63;;
75090;SDS011;63674;48.048;8.306;2023-03-15T00:12:44;4.70;;;1.67;;
75090;SDS011;63674;48.048;8.306;2023-03-15T00:15:12;6.10;;;1.73;;
75090;SDS011;63674;48.048;8.306;2023-03-15T00:17:41;4.15;;;1.48;;
75090;SDS011;63674;48.048;8.306;2023-03-15T00:20:10;7.75;;;1.92;;
75090;SDS011;63674;48.048;8.306;2023-03-15T00:22:41;5.70;;;1.88;;
75090;SDS011;63674;48.048;8.306;2023-03-15T00:25:11;5.93;;;1.70;;
75090;SDS011;63674;48.048;8.306;2023-03-15T00:27:40;5.13;;;1.60;;
75090;SDS011;63674;48.048;8.306;2023-03-15T00:30:09;4.40;;;1.40;;
75090;SDS011;63674;48.048;8.306;2023-03-15T00:32:38;5.82;;;1.38;;
75090;SDS011;63674;48.048;8.306;2023-03-15T00:35:08;5.35;;;1.50;;
75090;SDS011;63674;48.048;8.306;2023-03-15T00:37:38;5.28;;;2.15;;
75090;SDS011;63674;48.048;8.306;2023-03-15T00:40:08;4.50;;;1.10;;
75090;SDS011;63674;48.048;8.306;2023-03-15T00:42:39;5.25;;;1.35;;
75090;SDS011;63674;48.048;8.306;2023-03-15T00:45:15;6.30;;;1.40;;
75090;SDS011;63674;48.048;8.306;2023-03-15T00:47:47;6.25;;;1.30;;
75090;SDS011;63674;48.048;8.306;2023-03-15T00:50:16;5.85;;;1.20;;
75090;SDS011;63674;48.048;8.306;2023-03-15T00:52:45;8.17;;;1.53;;
75090;SDS011;63674;48.048;8.306;2023-03-15T00:55:16;6.63;;;1.25;;
75090;SDS011;63674;48.048;8.306;2023-03-15T00:57:47;6.45;;;1.70;;
75090;SDS011;63674;48.048;8.306;2023-03-15T01:00:17;6.30;;;1.40;;
75090;SDS011;63674;48.048;8.306;2023-03-15T01:02:50;5.55;;;1.23;;
75090;SDS011;63674;48.048;8.306;2023-03-15T01:05:19;5.60;;;1.40;;
75090;SDS011;63674;48.048;8.306;2023-03-15T01:07:48;8.27;;;1.52;;
75090;SDS011;63674;48.048;8.306;2023-03-15T01:10:20;4.43;;;1.38;;
75090;SDS011;63674;48.048;8.306;2023-03-15T01:12:48;6.43;;;1.40;;
75090;SDS011;63674;48.048;8.306;2023-03-15T01:15:17;5.72;;;1.60;;
75090;SDS011;63674;48.048;8.306;2023-03-15T01:17:46;6.70;;;1.53;;
75090;SDS011;63674;48.048;8.306;2023-03-15T01:20:14;5.60;;;1.40;;
75090;SDS011;63674;48.048;8.306;2023-03-15T01:22:43;7.53;;;1.70;;
75090;SDS011;63674;48.048;8.306;2023-03-15T01:25:11;7.15;;;1.60;;
75090;SDS011;63674;48.048;8.306;2023-03-15T01:27:41;6.97;;;2.00;;
75090;SDS011;63674;48.048;8.306;2023-03-15T01:30:10;6.10;;;1.70;;
75090;SDS011;63674;48.048;8.306;2023-03-15T01:32:39;6.15;;;1.80;;
75090;SDS011;63674;48.048;8.306;2023-03-15T01:35:08;8.50;;;1.90;;
75090;SDS011;63674;48.048;8.306;2023-03-15T01:37:37;6.68;;;1.63;;
75090;SDS011;63674;48.048;8.306;2023-03-15T01:40:06;7.00;;;2.10;;
75090;SDS011;63674;48.048;8.306;2023-03-15T01:42:51;6.27;;;1.50;;
75090;SDS011;63674;48.048;8.306;2023-03-15T01:45:56;5.53;;;1.55;;
75090;SDS011;63674;48.048;8.306;2023-03-15T01:48:34;7.40;;;2.00;;
75090;SDS011;63674;48.048;8.306;2023-03-15T01:51:12;8.80;;;2.10;;
75090;SDS011;63674;48.048;8.306;2023-03-15T01:53:44;7.20;;;1.92;;
75090;SDS011;63674;48.048;8.306;2023-03-15T01:56:17;7.53;;;1.80;;
75090;SDS011;63674;48.048;8.306;2023-03-15T01:58:48;8.43;;;1.83;;
75090;SDS011;63674;48.048;8.306;2023-03-15T02:01:19;8.45;;;2.03;;
75090;SDS011;63674;48.048;8.306;2023-03-15T02:03:48;6.15;;;1.70;;
75090;SDS011;63674;48.048;8.306;2023-03-15T02:06:23;7.90;;;2.08;;
75090;SDS011;63674;48.048;8.306;2023-03-15T02:08:52;9.80;;;1.90;;
75090;SDS011;63674;48.048;8.306;2023-03-15T02:11:24;11.43;;;2.85;;
75090;SDS011;63674;48.048;8.306;2023-03-15T02:13:55;11.55;;;2.45;;
75090;SDS011;63674;48.048;8.306;2023-03-15T02:16:25;8.48;;;2.28;;
75090;SDS011;63674;48.048;8.306;2023-03-15T02:18:56;7.53;;;2.40;;
75090;SDS011;63674;48.048;8.306;2023-03-15T02:21:29;8.13;;;2.00;;
75090;SDS011;63674;48.048;8.306;2023-03-15T02:24:12;5.60;;;1.95;;
75090;SDS011;63674;48.048;8.306;2023-03-15T02:26:54;7.90;;;2.30;;
75090;SDS011;63674;48.048;8.306;2023-03-15T02:29:26;9.30;;;2.45;;
75090;SDS011;63674;48.048;8.306;2023-03-15T02:31:56;5.32;;;1.95;;
75090;SDS011;63674;48.048;8.306;2023-03-15T02:34:25;8.13;;;2.60;;
75090;SDS011;63674;48.048;8.306;2023-03-15T02:36:53;5.97;;;1.90;;
75090;SDS011;63674;48.048;8.306;2023-03-15T02:39:22;5.78;;;2.00;;
75090;SDS011;63674;48.048;8.306;2023-03-15T02:41:53;6.47;;;1.83;;
75090;SDS011;63674;48.048;8.306;2023-03-15T02:44:26;5.95;;;2.05;;
75090;SDS011;63674;48.048;8.306;2023-03-15T02:46:58;7.67;;;2.50;;
75090;SDS011;63674;48.048;8.306;2023-03-15T02:49:33;7.28;;;2.00;;
75090;SDS011;63674;48.048;8.306;2023-03-15T02:52:06;5.68;;;1.80;;
75090;SDS011;63674;48.048;8.306;2023-03-15T02:54:35;5.13;;;1.80;;
75090;SDS011;63674;48.048;8.306;2023-03-15T02:57:05;4.95;;;1.90;;
75090;SDS011;63674;48.048;8.306;2023-03-15T02:59:35;7.57;;;1.80;;
75090;SDS011;63674;48.048;8.306;2023-03-15T03:02:03;7.05;;;1.92;;
75090;SDS011;63674;48.048;8.306;2023-03-15T03:04:33;7.32;;;2.00;;
75090;SDS011;63674;48.048;8.306;2023-03-15T03:07:02;7.35;;;2.10;;
75090;SDS011;63674;48.048;8.306;2023-03-15T03:09:31;11.80;;;2.13;;
75090;SDS011;63674;48.048;8.306;2023-03-15T03:12:00;12.03;;;2.23;;
75090;SDS011;63674;48.048;8.306;2023-03-15T03:14:29;6.32;;;1.70;;
75090;SDS011;63674;48.048;8.306;2023-03-15T03:16:59;8.20;;;2.10;;
75090;SDS011;63674;48.048;8.306;2023-03-15T03:19:28;7.80;;;2.28;;
75090;SDS011;63674;48.048;8.306;2023-03-15T03:21:56;6.57;;;1.83;;
75090;SDS011;63674;48.048;8.306;2023-03-15T03:24:25;8.27;;;1.83;;
75090;SDS011;63674;48.048;8.306;2023-03-15T03:26:54;6.68;;;1.70;;
75090;SDS011;63674;48.048;8.306;2023-03-15T03:29:23;8.65;;;1.70;;
75090;SDS011;63674;48.048;8.306;2023-03-15T03:31:53;6.80;;;1.60;;
75090;SDS011;63674;48.048;8.306;2023-03-15T03:34:23;5.10;;;1.90;;
75090;SDS011;63674;48.048;8.306;2023-03-15T03:36:52;5.50;;;1.70;;
75090;SDS011;63674;48.048;8.306;2023-03-15T03:39:20;6.25;;;1.55;;
75090;SDS011;63674;48.048;8.306;2023-03-15T03:41:49;5.40;;;1.38;;
75090;SDS011;63674;48.048;8.306;2023-03-15T03:44:18;6.45;;;1.67;;
75090;SDS011;63674;48.048;8.306;2023-03-15T03:46:47;9.00;;;1.85;;
75090;SDS011;63674;48.048;8.306;2023-03-15T03:49:15;11.80;;;1.67;;
75090;SDS011;63674;48.048;8.306;2023-03-15T03:51:45;6.72;;;1.40;;
75090;SDS011;63674;48.048;8.306;2023-03-15T03:54:14;7.95;;;1.80;;
75090;SDS011;63674;48.048;8.306;2023-03-15T03:56:45;7.35;;;2.00;;
75090;SDS011;63674;48.048;8.306;2023-03-15T03:59:14;8.25;;;2.05;;
75090;SDS011;63674;48.048;8.306;2023-03-15T04:01:42;4.80;;;1.47;;
75090;SDS011;63674;48.048;8.306;2023-03-15T04:04:11;6.07;;;1.55;;
75090;SDS011;63674;48.048;8.306;2023-03-15T04:06:40;5.68;;;1.80;;
75090;SDS011;63674;48.048;8.306;2023-03-15T04:09:13;8.32;;;1.73;;
75090;SDS011;63674;48.048;8.306;2023-03-15T04:11:43;7.97;;;1.80;;
75090;SDS011;63674;48.048;8.306;2023-03-15T04:14:11;10.17;;;2.33;;
75090;SDS011;63674;48.048;8.306;2023-03-15T04:16:41;6.13;;;1.88;;
75090;SDS011;63674;48.048;8.306;2023-03-15T04:19:09;6.68;;;2.20;;
75090;SDS011;63674;48.048;8.306;2023-03-15T04:21:39;6.20;;;1.80;;
75090;SDS011;63674;48.048;8.306;2023-03-15T04:24:14;8.55;;;1.83;;
75090;SDS011;63674;48.048;8.306;2023-03-15T04:26:42;8.03;;;1.47;;
75090;SDS011;63674;48.048;8.306;2023-03-15T04:29:11;7.07;;;1.58;;
75090;SDS011;63674;48.048;8.306;2023-03-15T04:31:40;6.38;;;1.77;;
75090;SDS011;63674;48.048;8.306;2023-03-15T04:34:09;6.43;;;2.30;;
75090;SDS011;63674;48.048;8.306;2023-03-15T04:36:39;7.07;;;2.00;;
75090;SDS011;63674;48.048;8.306;2023-03-15T04:39:08;6.17;;;1.83;;
75090;SDS011;63674;48.048;8.306;2023-03-15T04:41:39;5.40;;;1.58;;
75090;SDS011;63674;48.048;8.306;2023-03-15T04:44:08;5.65;;;1.35;;
75090;SDS011;63674;48.048;8.306;2023-03-15T04:46:36;7.15;;;1.55;;
75090;SDS011;63674;48.048;8.306;2023-03-15T04:49:05;5.95;;;1.33;;
75090;SDS011;63674;48.048;8.306;2023-03-15T04:51:34;6.83;;;1.80;;
75090;SDS011;63674;48.048;8.306;2023-03-15T04:54:02;9.15;;;1.90;;
75090;SDS011;63674;48.048;8.306;2023-03-15T04:56:31;6.35;;;1.65;;
75090;SDS011;63674;48.048;8.306;2023-03-15T04:59:03;6.18;;;1.70;;
75090;SDS011;63674;48.048;8.306;2023-03-15T05:01:31;6.82;;;1.60;;
75090;SDS011;63674;48.048;8.306;2023-03-15T05:04:00;9.20;;;2.07;;
75090;SDS011;63674;48.048;8.306;2023-03-15T05:06:28;11.55;;;2.90;;
75090;SDS011;63674;48.048;8.306;2023-03-15T05:08:57;27.20;;;8.93;;
75090;SDS011;63674;48.048;8.306;2023-03-15T05:11:26;22.95;;;5.18;;
75090;SDS011;63674;48.048;8.306;2023-03-15T05:13:54;11.73;;;3.60;;
75090;SDS011;63674;48.048;8.306;2023-03-15T05:16:24;5.47;;;2.07;;
75090;SDS011;63674;48.048;8.306;2023-03-15T05:18:53;9.15;;;1.95;;
75090;SDS011;63674;48.048;8.306;2023-03-15T05:21:22;6.25;;;1.77;;
75090;SDS011;63674;48.048;8.306;2023-03-15T05:23:51;7.38;;;2.20;;
75090;SDS011;63674;48.048;8.306;2023-03-15T05:26:19;7.55;;;2.38;;
75090;SDS011;63674;48.048;8.306;2023-03-15T05:28:50;7.97;;;2.30;;
75090;SDS011;63674;48.048;8.306;2023-03-15T05:31:21;7.65;;;2.25;;
75090;SDS011;63674;48.048;8.306;2023-03-15T05:33:51;9.93;;;2.15;;
75090;SDS011;63674;48.048;8.306;2023-03-15T05:36:20;8.30;;;2.35;;
75090;SDS011;63674;48.048;8.306;2023-03-15T05:38:49;6.00;;;2.00;;
75090;SDS011;63674;48.048;8.306;2023-03-15T05:41:18;7.80;;;1.80;;
75090;SDS011;63674;48.048;8.306;2023-03-15T05:43:46;7.07;;;1.60;;
75090;SDS011;63674;48.048;8.306;2023-03-15T05:46:15;7.47;;;1.70;;
75090;SDS011;63674;48.048;8.306;2023-03-15T05:48:44;7.32;;;1.90;;
75090;SDS011;63674;48.048;8.306;2023-03-15T05:51:14;7.68;;;2.13;;
75090;SDS011;63674;48.048;8.306;2023-03-15T05:53:43;10.67;;;2.40;;
75090;SDS011;63674;48.048;8.306;2023-03-15T05:56:11;6.72;;;2.28;;
75090;SDS011;63674;48.048;8.306;2023-03-15T05:58:40;5.20;;;1.50;;
75090;SDS011;63674;48.048;8.306;2023-03-15T06:01:09;6.97;;;1.73;;
75090;SDS011;63674;48.048;8.306;2023-03-15T06:03:39;7.65;;;2.30;;
75090;SDS011;63674;48.048;8.306;2023-03-15T06:06:07;6.77;;;1.90;;
75090;SDS011;63674;48.048;8.306;2023-03-15T06:08:37;7.68;;;1.80;;
75090;SDS011;63674;48.048;8.306;2023-03-15T06:11:06;11.48;;;3.05;;
75090;SDS011;63674;48.048;8.306;2023-03-15T06:13:34;8.32;;;2.22;;
75090;SDS011;63674;48.048;8.306;2023-03-15T06:16:04;9.20;;;2.63;;
75090;SDS011;63674;48.048;8.306;2023-03-15T06:18:33;6.10;;;2.07;;
75090;SDS011;63674;48.048;8.306;2023-03-15T06:21:02;7.13;;;1.75;;
75090;SDS011;63674;48.048;8.306;2023-03-15T06:23:30;9.32;;;2.63;;
75090;SDS011;63674;48.048;8.306;2023-03-15T06:26:00;6.40;;;1.38;;
75090;SDS011;63674;48.048;8.306;2023-03-15T06:28:29;7.38;;;2.28;;
75090;SDS011;63674;48.048;8.306;2023-03-15T06:30:58;8.30;;;2.30;;
75090;SDS011;63674;48.048;8.306;2023-03-15T06:33:31;7.13;;;1.33;;
75090;SDS011;63674;48.048;8.306;2023-03-15T06:36:00;11.52;;;3.45;;
75090;SDS011;63674;48.048;8.306;2023-03-15T06:38:28;9.95;;;3.10;;
75090;SDS011;63674;48.048;8.306;2023-03-15T06:40:57;7.53;;;2.10;;
75090;SDS011;63674;48.048;8.306;2023-03-15T06:43:28;10.27;;;2.27;;
75090;SDS011;63674;48.048;8.306;2023-03-15T06:45:58;9.55;;;2.10;;
75090;SDS011;63674;48.048;8.306;2023-03-15T06:48:27;12.45;;;3.33;;
75090;SDS011;63674;48.048;8.306;2023-03-15T06:50:56;13.18;;;3.40;;
75090;SDS011;63674;48.048;8.306;2023-03-15T06:53:25;10.40;;;3.08;;
75090;SDS011;63674;48.048;8.306;2023-03-15T06:55:53;10.20;;;2.90;;
75090;SDS011;63674;48.048;8.306;2023-03-15T06:58:22;9.52;;;2.70;;
75090;SDS011;63674;48.048;8.306;2023-03-15T07:00:52;8.55;;;2.78;;
75090;SDS011;63674;48.048;8.306;2023-03-15T07:03:20;9.15;;;2.55;;
75090;SDS011;63674;48.048;8.306;2023-03-15T07:05:49;8.57;;;2.42;;
75090;SDS011;63674;48.048;8.306;2023-03-15T07:08:19;5.73;;;1.50;;
75090;SDS011;63674;48.048;8.306;2023-03-15T07:10:49;4.95;;;1.20;;
75090;SDS011;63674;48.048;8.306;2023-03-15T07:13:18;8.32;;;2.20;;
75090;SDS011;63674;48.048;8.306;2023-03-15T07:15:49;10.25;;;2.13;;
75090;SDS011;63674;48.048;8.306;2023-03-15T07:18:20;8.48;;;1.80;;
75090;SDS011;63674;48.048;8.306;2023-03-15T07:20:54;13.17;;;5.10;;
75090;SDS011;63674;48.048;8.306;2023-03-15T07:23:24;8.65;;;2.40;;
75090;SDS011;63674;48.048;8.306;2023-03-15T07:25:52;9.35;;;2.30;;
75090;SDS011;63674;48.048;8.306;2023-03-15T07:28:23;9.98;;;3.42;;
75090;SDS011;63674;48.048;8.306;2023-03-15T07:30:54;7.47;;;2.30;;
75090;SDS011;63674;48.048;8.306;2023-03-15T07:33:25;13.33;;;3.53;;
75090;SDS011;63674;48.048;8.306;2023-03-15T07:35:55;17.23;;;4.82;;
75090;SDS011;63674;48.048;8.306;2023-03-15T07:38:25;16.30;;;4.60;;
75090;SDS011;63674;48.048;8.306;2023-03-15T07:40:55;13.52;;;5.10;;
75090;SDS011;63674;48.048;8.306;2023-03-15T07:43:25;15.20;;;4.68;;
75090;SDS011;63674;48.048;8.306;2023-03-15T07:45:56;13.50;;;3.60;;
75090;SDS011;63674;48.048;8.306;2023-03-15T07:48:24;10.75;;;3.75;;
75090;SDS011;63674;48.048;8.306;2023-03-15T07:50:54;10.27;;;2.38;;
75090;SDS011;63674;48.048;8.306;2023-03-15T07:53:24;6.38;;;1.30;;
75090;SDS011;63674;48.048;8.306;2023-03-15T07:55:53;10.55;;;1.45;;
75090;SDS011;63674;48.048;8.306;2023-03-15T07:58:21;5.90;;;1.43;;
75090;SDS011;63674;48.048;8.306;2023-03-15T08:00:52;5.35;;;1.50;;
75090;SDS011;63674;48.048;8.306;2023-03-15T08:03:24;6.88;;;1.27;;
75090;SDS011;63674;48.048;8.306;2023-03-15T08:05:53;7.45;;;1.63;;
75090;SDS011;63674;48.048;8.306;2023-03-15T08:08:22;7.13;;;1.60;;
75090;SDS011;63674;48.048;8.306;2023-03-15T08:10:51;5.63;;;1.40;;
75090;SDS011;63674;48.048;8.306;2023-03-15T08:13:22;8.05;;;1.50;;
75090;SDS011;63674;48.048;8.306;2023-03-15T08:15:50;15.02;;;2.10;;
75090;SDS011;63674;48.048;8.306;2023-03-15T08:18:20;5.43;;;1.40;;
75090;SDS011;63674;48.048;8.306;2023-03-15T08:20:50;4.88;;;1.23;;
75090;SDS011;63674;48.048;8.306;2023-03-15T08:23:18;7.60;;;1.73;;
75090;SDS011;63674;48.048;8.306;2023-03-15T08:25:47;8.13;;;1.70;;
75090;SDS011;63674;48.048;8.306;2023-03-15T08:28:16;8.13;;;1.90;;
75090;SDS011;63674;48.048;8.306;2023-03-15T08:30:44;7.13;;;1.58;;
75090;SDS011;63674;48.048;8.306;2023-03-15T08:33:13;5.75;;;1.30;;
75090;SDS011;63674;48.048;8.306;2023-03-15T08:35:43;6.63;;;1.50;;
75090;SDS011;63674;48.048;8.306;2023-03-15T08:38:13;8.95;;;1.48;;
75090;SDS011;63674;48.048;8.306;2023-03-15T08:40:41;5.65;;;1.40;;
75090;SDS011;63674;48.048;8.306;2023-03-15T08:43:10;6.53;;;1.45;;
75090;SDS011;63674;48.048;8.306;2023-03-15T08:45:39;6.25;;;1.27;;
75090;SDS011;63674;48.048;8.306;2023-03-15T08:48:25;4.37;;;0.80;;
75090;SDS011;63674;48.048;8.306;2023-03-15T08:50:55;4.07;;;0.70;;
75090;SDS011;63674;48.048;8.306;2023-03-15T08:53:24;6.10;;;1.20;;
75090;SDS011;63674;48.048;8.306;2023-03-15T08:55:54;6.72;;;1.40;;
75090;SDS011;63674;48.048;8.306;2023-03-15T08:58:22;5.70;;;1.02;;
75090;SDS011;63674;48.048;8.306;2023-03-15T09:00:51;3.20;;;0.70;;
75090;SDS011;63674;48.048;8.306;2023-03-15T09:03:20;3.72;;;0.80;;
75090;SDS011;63674;48.048;8.306;2023-03-15T09:05:49;3.63;;;1.13;;
75090;SDS011;63674;48.048;8.306;2023-03-15T09:08:24;4.80;;;0.80;;
75090;SDS011;63674;48.048;8.306;2023-03-15T09:10:53;4.50;;;1.10;;
75090;SDS011;63674;48.048;8.306;2023-03-15T09:13:23;4.23;;;1.00;;
75090;SDS011;63674;48.048;8.306;2023-03-15T09:15:52;6.03;;;1.05;;
75090;SDS011;63674;48.048;8.306;2023-03-15T09:18:23;4.38;;;0.80;;
75090;SDS011;63674;48.048;8.306;2023-03-15T09:20:52;4.53;;;0.80;;
75090;SDS011;63674;48.048;8.306;2023-03-15T09:23:24;4.22;;;0.98;;
75090;SDS011;63674;48.048;8.306;2023-03-15T09:25:53;4.20;;;0.90;;
75090;SDS011;63674;48.048;8.306;2023-03-15T09:28:22;6.57;;;0.90;;
75090;SDS011;63674;48.048;8.306;2023-03-15T09:30:52;4.13;;;0.75;;
75090;SDS011;63674;48.048;8.306;2023-03-15T09:33:20;5.18;;;0.90;;
75090;SDS011;63674;48.048;8.306;2023-03-15T09:35:49;4.97;;;0.90;;
75090;SDS011;63674;48.048;8.306;2023-03-15T09:38:18;4.63;;;0.70;;
75090;SDS011;63674;48.048;8.306;2023-03-15T09:40:48;4.82;;;0.90;;
75090;SDS011;63674;48.048;8.306;2023-03-15T09:43:28;3.80;;;0.80;;
75090;SDS011;63674;48.048;8.306;2023-03-15T09:46:22;4.47;;;0.80;;
75090;SDS011;63674;48.048;8.306;2023-03-15T09:48:55;3.83;;;0.80;;
75090;SDS011;63674;48.048;8.306;2023-03-15T09:51:35;3.17;;;0.50;;
75090;SDS011;63674;48.048;8.306;2023-03-15T09:54:10;4.20;;;0.70;;
75090;SDS011;63674;48.048;8.306;2023-03-15T09:56:48;4.00;;;0.80;;
75090;SDS011;63674;48.048;8.306;2023-03-15T09:59:22;5.05;;;1.00;;
75090;SDS011;63674;48.048;8.306;2023-03-15T10:01:56;3.70;;;0.60;;
75090;SDS011;63674;48.048;8.306;2023-03-15T10:04:32;3.70;;;0.90;;
75090;SDS011;63674;48.048;8.306;2023-03-15T10:07:05;4.15;;;0.95;;
75090;SDS011;63674;48.048;8.306;2023-03-15T10:09:41;3.55;;;0.65;;
75090;SDS011;63674;48.048;8.306;2023-03-15T10:12:12;3.83;;;0.60;;
75090;SDS011;63674;48.048;8.306;2023-03-15T10:14:51;5.70;;;0.80;;
75090;SDS011;63674;48.048;8.306;2023-03-15T10:17:34;3.13;;;0.70;;
75090;SDS011;63674;48.048;8.306;2023-03-15T10:20:14;3.53;;;0.63;;
75090;SDS011;63674;48.048;8.306;2023-03-15T10:22:47;4.65;;;0.82;;
75090;SDS011;63674;48.048;8.306;2023-03-15T10:25:22;5.07;;;1.08;;
75090;SDS011;63674;48.048;8.306;2023-03-15T10:27:56;4.07;;;0.73;;
75090;SDS011;63674;48.048;8.306;2023-03-15T10:30:30;4.37;;;0.70;;
75090;SDS011;63674;48.048;8.306;2023-03-15T10:33:03;3.40;;;0.70;;
75090;SDS011;63674;48.048;8.306;2023-03-15T10:35:43;3.63;;;0.90;;
75090;SDS011;63674;48.048;8.306;2023-03-15T10:38:13;2.90;;;0.50;;
75090;SDS011;63674;48.048;8.306;2023-03-15T10:40:49;4.03;;;0.80;;
75090;SDS011;63674;48.048;8.306;2023-03-15T10:43:21;4.43;;;1.02;;
75090;SDS011;63674;48.048;8.306;2023-03-15T10:45:57;4.97;;;0.82;;
75090;SDS011;63674;48.048;8.306;2023-03-15T10:48:28;3.22;;;0.88;;
75090;SDS011;63674;48.048;8.306;2023-03-15T10:51:00;3.95;;;0.80;;
75090;SDS011;63674;48.048;8.306;2023-03-15T10:53:32;5.82;;;1.55;;
75090;SDS011;63674;48.048;8.306;2023-03-15T10:56:03;5.18;;;1.10;;
75090;SDS011;63674;48.048;8.306;2023-03-15T10:58:41;6.65;;;2.40;;
75090;SDS011;63674;48.048;8.306;2023-03-15T11:01:34;5.05;;;1.40;;
75090;SDS011;63674;48.048;8.306;2023-03-15T11:04:11;4.90;;;1.10;;
75090;SDS011;63674;48.048;8.306;2023-03-15T11:06:45;4.38;;;1.02;;
75090;SDS011;63674;48.048;8.306;2023-03-15T11:09:17;4.22;;;1.30;;
75090;SDS011;63674;48.048;8.306;2023-03-15T11:14:38;5.53;;;1.40;;
75090;SDS011;63674;48.048;8.306;2023-03-15T11:17:14;5.28;;;1.80;;
75090;SDS011;63674;48.048;8.306;2023-03-15T11:19:48;5.88;;;1.38;;
75090;SDS011;63674;48.048;8.306;2023-03-15T11:22:22;5.33;;;1.40;;
75090;SDS011;63674;48.048;8.306;2023-03-15T11:24:51;4.80;;;1.40;;
75090;SDS011;63674;48.048;8.306;2023-03-15T11:27:22;4.32;;;1.17;;
75090;SDS011;63674;48.048;8.306;2023-03-15T11:29:54;3.15;;;0.68;;
75090;SDS011;63674;48.048;8.306;2023-03-15T11:32:26;5.15;;;1.00;;
75090;SDS011;63674;48.048;8.306;2023-03-15T11:34:59;4.10;;;0.63;;
75090;SDS011;63674;48.048;8.306;2023-03-15T11:37:32;3.80;;;0.95;;
75090;SDS011;63674;48.048;8.306;2023-03-15T11:40:08;4.03;;;0.63;;
75090;SDS011;63674;48.048;8.306;2023-03-15T11:42:47;4.97;;;1.05;;
75090;SDS011;63674;48.048;8.306;2023-03-15T11:45:23;6.57;;;1.25;;
75090;SDS011;63674;48.048;8.306;2023-03-15T11:48:00;4.70;;;0.93;;
75090;SDS011;63674;48.048;8.306;2023-03-15T11:50:36;4.57;;;0.70;;
75090;SDS011;63674;48.048;8.306;2023-03-15T11:53:05;3.60;;;0.85;;
75090;SDS011;63674;48.048;8.306;2023-03-15T11:55:36;3.15;;;0.80;;
75090;SDS011;63674;48.048;8.306;2023-03-15T11:58:28;4.72;;;0.90;;
75090;SDS011;63674;48.048;8.306;2023-03-15T12:01:02;3.93;;;1.17;;
75090;SDS011;63674;48.048;8.306;2023-03-15T12:03:33;3.63;;;0.95;;
75090;SDS011;63674;48.048;8.306;2023-03-15T12:06:08;5.07;;;0.90;;
75090;SDS011;63674;48.048;8.306;2023-03-15T12:08:42;4.30;;;0.90;;
75090;SDS011;63674;48.048;8.306;2023-03-15T12:14:19;4.20;;;0.90;;
75090;SDS011;63674;48.048;8.306;2023-03-15T12:20:07;9.45;;;1.75;;
75090;SDS011;63674;48.048;8.306;2023-03-15T12:22:46;3.78;;;0.90;;
75090;SDS011;63674;48.048;8.306;2023-03-15T12:25:20;4.18;;;0.93;;
75090;SDS011;63674;48.048;8.306;2023-03-15T12:28:18;3.60;;;0.63;;
75090;SDS011;63674;48.048;8.306;2023-03-15T12:30:53;3.25;;;0.70;;
75090;SDS011;63674;48.048;8.306;2023-03-15T12:33:24;4.00;;;0.70;;
75090;SDS011;63674;48.048;8.306;2023-03-15T12:35:57;5.53;;;1.00;;
75090;SDS011;63674;48.048;8.306;2023-03-15T12:38:31;3.45;;;0.68;;
75090;SDS011;63674;48.048;8.306;2023-03-15T12:41:05;3.58;;;0.68;;
75090;SDS011;63674;48.048;8.306;2023-03-15T12:43:37;3.38;;;0.88;;
75090;SDS011;63674;48.048;8.306;2023-03-15T12:49:28;4.50;;;1.00;;
75090;SDS011;63674;48.048;8.306;2023-03-15T12:52:01;4.38;;;1.10;;
75090;SDS011;63674;48.048;8.306;2023-03-15T12:54:36;3.23;;;0.70;;
75090;SDS011;63674;48.048;8.306;2023-03-15T12:57:10;3.38;;;0.70;;
75090;SDS011;63674;48.048;8.306;2023-03-15T12:59:45;4.30;;;0.90;;
75090;SDS011;63674;48.048;8.306;2023-03-15T13:02:25;3.97;;;0.70;;
75090;SDS011;63674;48.048;8.306;2023-03-15T13:05:14;3.88;;;1.00;;
75090;SDS011;63674;48.048;8.306;2023-03-15T13:07:57;3.45;;;0.93;;
75090;SDS011;63674;48.048;8.306;2023-03-15T13:16:42;4.45;;;0.80;;
75090;SDS011;63674;48.048;8.306;2023-03-15T13:19:18;4.90;;;1.00;;
75090;SDS011;63674;48.048;8.306;2023-03-15T13:21:52;3.30;;;0.95;;
75090;SDS011;63674;48.048;8.306;2023-03-15T13:24:37;2.92;;;0.65;;
75090;SDS011;63674;48.048;8.306;2023-03-15T13:27:12;3.92;;;0.73;;
75090;SDS011;63674;48.048;8.306;2023-03-15T13:29:54;3.45;;;0.70;;
75090;SDS011;63674;48.048;8.306;2023-03-15T13:32:23;3.13;;;0.70;;
75090;SDS011;63674;48.048;8.306;2023-03-15T13:34:53;3.70;;;0.80;;
75090;SDS011;63674;48.048;8.306;2023-03-15T13:37:24;4.15;;;1.13;;
75090;SDS011;63674;48.048;8.306;2023-03-15T13:39:55;4.65;;;1.33;;
75090;SDS011;63674;48.048;8.306;2023-03-15T13:42:27;3.75;;;1.00;;
75090;SDS011;63674;48.048;8.306;2023-03-15T13:45:05;5.22;;;0.80;;
75090;SDS011;63674;48.048;8.306;2023-03-15T13:47:39;4.00;;;0.67;;
75090;SDS011;63674;48.048;8.306;2023-03-15T13:50:13;3.53;;;0.88;;
75090;SDS011;63674;48.048;8.306;2023-03-15T13:52:44;4.95;;;1.30;;
75090;SDS011;63674;48.048;8.306;2023-03-15T13:55:14;4.63;;;1.40;;
75090;SDS011;63674;48.048;8.306;2023-03-15T13:57:48;11.43;;;4.40;;
75090;SDS011;63674;48.048;8.306;2023-03-15T14:00:21;3.83;;;0.95;;
75090;SDS011;63674;48.048;8.306;2023-03-15T14:02:52;4.85;;;0.90;;
75090;SDS011;63674;48.048;8.306;2023-03-15T14:05:26;4.30;;;0.80;;
75090;SDS011;63674;48.048;8.306;2023-03-15T14:07:58;3.28;;;0.60;;
75090;SDS011;63674;48.048;8.306;2023-03-15T14:10:30;3.97;;;0.80;;
75090;SDS011;63674;48.048;8.306;2023-03-15T14:13:14;3.73;;;0.83;;
75090;SDS011;63674;48.048;8.306;2023-03-15T14:15:49;4.43;;;0.80;;
75090;SDS011;63674;48.048;8.306;2023-03-15T14:18:23;3.80;;;0.93;;
75090;SDS011;63674;48.048;8.306;2023-03-15T14:20:59;3.53;;;0.85;;
75090;SDS011;63674;48.048;8.306;2023-03-15T14:23:35;3.72;;;1.00;;
75090;SDS011;63674;48.048;8.306;2023-03-15T14:26:11;4.65;;;1.10;;
75090;SDS011;63674;48.048;8.306;2023-03-15T14:28:48;4.40;;;1.00;;
75090;SDS011;63674;48.048;8.306;2023-03-15T14:31:22;3.63;;;0.70;;
75090;SDS011;63674;48.048;8.306;2023-03-15T14:33:55;4.18;;;0.80;;
75090;SDS011;63674;48.048;8.306;2023-03-15T14:36:30;3.20;;;0.70;;
75090;SDS011;63674;48.048;8.306;2023-03-15T14:39:01;3.90;;;1.00;;
75090;SDS011;63674;48.048;8.306;2023-03-15T14:41:31;3.63;;;0.80;;
75090;SDS011;63674;48.048;8.306;2023-03-15T14:44:00;3.25;;;0.80;;
75090;SDS011;63674;48.048;8.306;2023-03-15T14:46:29;7.00;;;1.85;;
75090;SDS011;63674;48.048;8.306;2023-03-15T14:48:58;4.30;;;0.98;;
75090;SDS011;63674;48.048;8.306;2023-03-15T14:51:27;4.28;;;0.90;;
75090;SDS011;63674;48.048;8.306;2023-03-15T14:53:58;3.72;;;0.65;;
75090;SDS011;63674;48.048;8.306;2023-03-15T14:56:27;3.20;;;0.80;;
75090;SDS011;63674;48.048;8.306;2023-03-15T14:58:56;3.65;;;0.82;;
75090;SDS011;63674;48.048;8.306;2023-03-15T15:01:26;6.00;;;2.22;;
75090;SDS011;63674;48.048;8.306;2023-03-15T15:03:55;4.22;;;0.90;;
75090;SDS011;63674;48.048;8.306;2023-03-15T15:06:27;5.75;;;1.40;;
75090;SDS011;63674;48.048;8.306;2023-03-15T15:08:58;6.15;;;0.95;;
75090;SDS011;63674;48.048;8.306;2023-03-15T15:11:29;3.00;;;0.70;;
75090;SDS011;63674;48.048;8.306;2023-03-15T15:13:57;4.25;;;1.20;;
75090;SDS011;63674;48.048;8.306;2023-03-15T15:16:26;3.58;;;1.02;;
75090;SDS011;63674;48.048;8.306;2023-03-15T15:18:54;4.55;;;1.08;;
75090;SDS011;63674;48.048;8.306;2023-03-15T15:21:23;4.20;;;0.90;;
75090;SDS011;63674;48.048;8.306;2023-03-15T15:23:59;3.95;;;1.13;;
75090;SDS011;63674;48.048;8.306;2023-03-15T15:26:29;4.07;;;1.05;;
75090;SDS011;63674;48.048;8.306;2023-03-15T15:29:00;7.38;;;1.75;;